createdAt,value
2023-01-13T00:02:15.413Z,6.80
2023-01-13T00:07:18.316Z,6.10
2023-01-13T00:12:21.660Z,5.90
2023-01-13T00:17:24.751Z,6.60
2023-01-13T00:22:27.740Z,7.10
2023-01-13T00:27:30.796Z,7.50
2023-01-13T00:32:33.805Z,7.30
2023-01-13T00:37:38.400Z,7.90
2023-01-13T00:43:00.062Z,7.90
2023-01-13T00:48:03.064Z,7.40
2023-01-13T00:53:05.969Z,8.20
2023-01-13T00:58:08.902Z,8.40
2023-01-13T01:03:12.473Z,8.80
2023-01-13T01:08:15.439Z,7.50
2023-01-13T01:13:18.405Z,9.70
2023-01-13T01:18:21.374Z,8.90
2023-01-13T01:23:24.330Z,9.90
2023-01-13T01:28:27.478Z,10.40
2023-01-13T01:33:30.751Z,8.00
2023-01-13T01:38:34.055Z,9.50
2023-01-13T01:43:59.367Z,8.40
2023-01-13T01:49:07.695Z,10.60
2023-01-13T01:54:15.283Z,9.20
2023-01-13T01:59:18.994Z,9.20
2023-01-13T02:04:32.342Z,10.00
2023-01-13T02:09:36.788Z,9.00
2023-01-13T02:14:41.992Z,8.80
2023-01-13T02:20:14.876Z,7.80
2023-01-13T02:25:39.249Z,7.70
2023-01-13T02:31:11.083Z,8.40
2023-01-13T02:36:24.569Z,8.90
2023-01-13T02:42:32.635Z,9.80
2023-01-13T02:47:41.478Z,9.40
2023-01-13T02:52:59.892Z,9.00
2023-01-13T02:58:07.664Z,9.10
2023-01-13T03:03:10.522Z,6.10
2023-01-13T03:08:34.345Z,5.00
2023-01-13T03:13:58.823Z,6.70
2023-01-13T03:19:31.808Z,7.60
2023-01-13T03:24:42.563Z,6.30
2023-01-13T03:29:59.174Z,6.20
2023-01-13T03:35:13.319Z,6.30
2023-01-13T03:40:23.807Z,5.60
2023-01-13T03:45:27.851Z,6.40
2023-01-13T03:50:40.804Z,7.60
2023-01-13T03:55:52.979Z,7.40
2023-01-13T04:01:07.465Z,7.70
2023-01-13T04:06:38.330Z,10.00
2023-01-13T04:11:53.302Z,9.30
2023-01-13T04:16:57.068Z,9.60
2023-01-13T04:22:00.153Z,10.70
2023-01-13T04:27:04.182Z,10.10
2023-01-13T04:32:06.994Z,9.90
2023-01-13T04:37:09.842Z,9.20
2023-01-13T04:42:13.204Z,11.70
2023-01-13T04:47:16.035Z,12.10
2023-01-13T04:52:18.981Z,13.10
2023-01-13T04:57:21.879Z,15.20
2023-01-13T05:02:24.758Z,11.50
2023-01-13T05:07:27.712Z,15.40
2023-01-13T05:12:49.369Z,16.40
2023-01-13T05:17:52.569Z,15.70
2023-01-13T05:23:14.087Z,15.30
2023-01-13T05:28:17.106Z,13.90
2023-01-13T05:33:20.811Z,14.30
2023-01-13T05:38:23.697Z,14.60
2023-01-13T05:43:27.939Z,14.50
2023-01-13T05:48:38.155Z,15.00
2023-01-13T05:53:41.419Z,14.50
2023-01-13T05:58:44.866Z,15.00
2023-01-13T06:03:47.731Z,16.10
2023-01-13T06:08:50.590Z,16.40
2023-01-13T06:13:53.456Z,15.00
2023-01-13T06:18:56.313Z,16.20
2023-01-13T06:23:59.861Z,14.30
2023-01-13T06:29:02.715Z,14.70
2023-01-13T06:34:13.499Z,14.80
2023-01-13T06:39:22.006Z,13.50
2023-01-13T06:44:25.210Z,14.80
2023-01-13T06:49:28.294Z,14.40
2023-01-13T06:54:31.243Z,14.50
2023-01-13T06:59:35.310Z,14.60
2023-01-13T07:04:38.188Z,13.40
2023-01-13T07:09:41.102Z,14.90
2023-01-13T07:15:02.626Z,16.60
2023-01-13T07:20:06.885Z,18.20
2023-01-13T07:25:11.427Z,17.80
2023-01-13T07:30:14.647Z,15.90
2023-01-13T07:35:21.908Z,16.50
2023-01-13T07:40:24.870Z,17.60
2023-01-13T07:45:27.876Z,17.80
2023-01-13T07:50:30.835Z,16.60
2023-01-13T07:55:33.834Z,18.80
2023-01-13T08:00:38.827Z,17.60
2023-01-13T08:05:41.843Z,17.20
2023-01-13T08:10:45.179Z,14.40
2023-01-13T08:15:58.735Z,17.40
2023-01-13T08:21:05.569Z,19.90
2023-01-13T08:26:14.290Z,17.30
2023-01-13T08:31:17.404Z,17.70
2023-01-13T08:36:20.479Z,17.70
2023-01-13T08:41:41.965Z,18.30
2023-01-13T08:46:44.901Z,15.70
2023-01-13T08:51:48.405Z,17.00
2023-01-13T08:56:51.388Z,18.50
2023-01-13T09:01:54.476Z,18.80
2023-01-13T09:06:57.966Z,19.30
2023-01-13T09:12:19.769Z,18.40
2023-01-13T09:17:25.902Z,19.70
2023-01-13T09:22:28.902Z,18.90
2023-01-13T09:27:31.904Z,19.50
2023-01-13T09:32:35.260Z,19.50
2023-01-13T09:37:40.991Z,19.70
2023-01-13T09:43:11.134Z,19.00
2023-01-13T09:48:52.255Z,20.20
2023-01-13T09:54:05.253Z,18.40
2023-01-13T09:59:12.361Z,19.50
2023-01-13T10:04:16.159Z,20.40
2023-01-13T10:09:27.343Z,20.70
2023-01-13T10:14:57.255Z,18.90
2023-01-13T10:20:18.621Z,17.80
2023-01-13T10:26:02.825Z,16.70
2023-01-13T10:31:14.925Z,16.40
2023-01-13T10:36:23.081Z,17.50
2023-01-13T10:41:27.913Z,18.00
2023-01-13T10:46:35.159Z,18.90
2023-01-13T10:51:37.996Z,16.80
2023-01-13T10:56:46.245Z,15.70
2023-01-13T11:02:19.874Z,15.50
2023-01-13T11:07:40.329Z,15.20
2023-01-13T11:13:19.600Z,16.90
2023-01-13T11:18:37.901Z,16.30
2023-01-13T11:23:50.230Z,16.30
2023-01-13T11:29:18.006Z,16.40
2023-01-13T11:34:40.239Z,17.80
2023-01-13T11:40:04.182Z,17.40
2023-01-13T11:45:44.432Z,14.80
2023-01-13T11:51:15.141Z,14.50
2023-01-13T11:57:08.591Z,15.40
2023-01-13T12:02:52.209Z,18.60
2023-01-13T12:08:11.076Z,17.20
2023-01-13T12:13:24.315Z,18.90
2023-01-13T12:19:10.608Z,18.60
2023-01-13T12:25:07.306Z,19.40
2023-01-13T12:30:41.066Z,19.60
2023-01-13T12:36:07.518Z,19.30
2023-01-13T12:42:26.463Z,17.00
2023-01-13T12:47:40.290Z,18.20
2023-01-13T12:52:45.165Z,18.70
2023-01-13T12:58:06.078Z,17.60
2023-01-13T13:03:15.848Z,18.30
2023-01-13T13:08:51.031Z,16.60
2023-01-13T13:13:54.028Z,26.50
2023-01-13T13:19:18.701Z,26.70
2023-01-13T13:24:21.767Z,21.10
2023-01-13T13:29:57.659Z,21.10
2023-01-13T13:35:06.308Z,20.80
2023-01-13T13:40:29.599Z,20.90
2023-01-13T13:45:51.349Z,24.70
2023-01-13T13:51:02.266Z,22.20
2023-01-13T13:56:17.991Z,26.00
2023-01-13T14:01:30.301Z,24.20
2023-01-13T14:06:34.166Z,36.20
2023-01-13T14:11:37.095Z,25.70
2023-01-13T14:16:41.318Z,28.30
2023-01-13T14:21:48.492Z,23.40
2023-01-13T14:26:53.331Z,20.00
2023-01-13T14:31:56.296Z,20.80
2023-01-13T14:37:00.048Z,20.20
2023-01-13T14:42:03.178Z,21.50
2023-01-13T14:47:19.840Z,21.40
2023-01-13T14:52:25.611Z,27.80
2023-01-13T14:57:39.601Z,27.20
2023-01-13T15:02:57.887Z,23.50
2023-01-13T15:08:05.666Z,20.00
2023-01-13T15:13:24.589Z,40.80
2023-01-13T15:18:29.286Z,35.90
2023-01-13T15:23:32.168Z,22.90
2023-01-13T15:28:35.175Z,24.30
2023-01-13T15:33:38.387Z,24.30
2023-01-13T15:38:43.726Z,23.40
2023-01-13T15:44:05.589Z,46.20
2023-01-13T15:49:27.438Z,31.70
2023-01-13T15:54:30.894Z,21.80
2023-01-13T15:59:33.989Z,25.00
2023-01-13T16:04:36.870Z,38.50
2023-01-13T16:09:39.829Z,37.50
2023-01-13T16:14:42.932Z,29.70
2023-01-13T16:19:46.793Z,27.30
2023-01-13T16:24:49.789Z,37.70
2023-01-13T16:29:53.265Z,22.50
2023-01-13T16:34:56.261Z,19.00
2023-01-13T16:39:59.343Z,30.60
2023-01-13T16:45:08.600Z,28.30
2023-01-13T16:50:23.603Z,22.20
2023-01-13T16:55:28.104Z,18.40
2023-01-13T17:00:32.213Z,20.20
2023-01-13T17:05:39.698Z,17.60
2023-01-13T17:10:42.563Z,17.60
2023-01-13T17:15:46.326Z,16.30
2023-01-13T17:20:49.203Z,12.70
2023-01-13T17:25:54.914Z,14.90
2023-01-13T17:30:57.960Z,14.10
2023-01-13T17:36:01.801Z,12.10
2023-01-13T17:41:05.501Z,9.40
2023-01-13T17:46:11.222Z,9.40
2023-01-13T17:51:16.773Z,13.80
2023-01-13T17:56:19.977Z,17.60
2023-01-13T18:01:23.431Z,12.20
2023-01-13T18:06:27.142Z,10.50
2023-01-13T18:11:30.111Z,17.80
2023-01-13T18:16:33.385Z,13.40
2023-01-13T18:21:55.331Z,42.00
2023-01-13T18:27:17.979Z,14.00
2023-01-13T18:32:26.539Z,16.10
2023-01-13T18:37:29.904Z,12.70
2023-01-13T18:42:51.556Z,18.40
2023-01-13T18:47:58.085Z,26.20
2023-01-13T18:53:02.937Z,23.70
2023-01-13T18:58:06.402Z,21.10
2023-01-13T19:03:14.240Z,32.30
2023-01-13T19:08:17.748Z,20.20
2023-01-13T19:13:22.149Z,19.40
2023-01-13T19:18:27.875Z,32.80
2023-01-13T19:23:32.435Z,24.70
2023-01-13T19:28:40.206Z,22.40
2023-01-13T19:33:43.486Z,24.70
2023-01-13T19:38:46.376Z,18.00
2023-01-13T19:44:08.343Z,35.50
2023-01-13T19:49:11.491Z,18.50
2023-01-13T19:54:14.402Z,11.90
2023-01-13T19:59:22.958Z,28.20
2023-01-13T20:04:33.929Z,18.70
2023-01-13T20:09:37.070Z,14.30
2023-01-13T20:14:41.534Z,14.20
2023-01-13T20:19:44.958Z,13.90
2023-01-13T20:24:52.374Z,13.10
2023-01-13T20:29:55.386Z,11.00
2023-01-13T20:34:58.300Z,10.30
2023-01-13T20:40:03.986Z,14.30
2023-01-13T20:45:07.842Z,15.50
2023-01-13T20:50:11.922Z,13.00
2023-01-13T20:55:15.046Z,13.60
2023-01-13T21:00:19.123Z,12.50
2023-01-13T21:05:22.006Z,17.40
2023-01-13T21:10:24.904Z,12.00
2023-01-13T21:15:28.061Z,12.10
2023-01-13T21:20:33.630Z,10.60
2023-01-13T21:25:40.167Z,12.10
2023-01-13T21:30:44.748Z,11.00
2023-01-13T21:35:47.676Z,12.60
2023-01-13T21:41:02.823Z,11.50
2023-01-13T21:46:33.439Z,10.10
2023-01-13T21:51:36.711Z,12.80
2023-01-13T21:56:39.725Z,11.70
2023-01-13T22:01:57.103Z,11.30
2023-01-13T22:07:06.760Z,11.80
2023-01-13T22:12:09.781Z,11.90
2023-01-13T22:17:15.484Z,13.20
2023-01-13T22:22:19.044Z,16.10
2023-01-13T22:27:29.124Z,12.20
2023-01-13T22:32:37.627Z,10.80
2023-01-13T22:37:41.334Z,10.00
2023-01-13T22:42:44.205Z,9.20
2023-01-13T22:47:48.070Z,9.30
2023-01-13T22:52:50.980Z,9.50
2023-01-13T22:57:54.418Z,8.70
2023-01-13T23:02:57.351Z,9.20
2023-01-13T23:08:00.350Z,8.00
2023-01-13T23:13:03.253Z,9.90
2023-01-13T23:18:06.131Z,8.30
2023-01-13T23:23:09.037Z,7.10
2023-01-13T23:28:11.888Z,6.20
2023-01-13T23:33:15.061Z,6.20
2023-01-13T23:38:17.914Z,7.70
2023-01-13T23:43:21.933Z,6.90
2023-01-13T23:48:24.789Z,6.90
2023-01-13T23:53:35.338Z,7.30
2023-01-13T23:58:38.209Z,7.50
